createdAt,value
2023-04-24T00:01:08.942Z,93.10
2023-04-24T00:06:12.674Z,93.50
2023-04-24T00:11:17.759Z,93.80
2023-04-24T00:16:21.537Z,94.30
2023-04-24T00:21:27.209Z,94.80
2023-04-24T00:26:32.018Z,95.40
2023-04-24T00:31:35.870Z,95.70
2023-04-24T00:36:39.341Z,96.20
2023-04-24T00:41:44.250Z,96.70
2023-04-24T00:46:52.811Z,97.10
2023-04-24T00:51:56.051Z,97.50
2023-04-24T00:57:01.476Z,98.00
2023-04-24T01:02:04.681Z,98.40
2023-04-24T01:07:11.547Z,98.80
2023-04-24T01:12:16.682Z,99.10
2023-04-24T01:17:22.083Z,99.40
2023-04-24T01:22:26.742Z,99.60
2023-04-24T01:27:30.058Z,99.70
2023-04-24T01:32:34.504Z,99.80
2023-04-24T01:37:39.755Z,99.90
2023-04-24T01:42:44.428Z,99.80
2023-04-24T01:47:48.529Z,99.80
2023-04-24T01:52:53.172Z,99.90
2023-04-24T01:57:58.574Z,99.90
2023-04-24T02:03:03.343Z,99.90
2023-04-24T02:08:08.241Z,99.90
2023-04-24T02:13:14.463Z,99.90
2023-04-24T02:18:17.917Z,99.90
2023-04-24T02:23:22.635Z,99.90
2023-04-24T02:28:26.480Z,99.90
2023-04-24T02:33:30.133Z,99.90
2023-04-24T02:38:35.050Z,99.90
2023-04-24T02:43:38.341Z,99.90
2023-04-24T02:48:41.853Z,99.90
2023-04-24T02:53:46.633Z,99.90
2023-04-24T02:58:50.401Z,99.90
2023-04-24T03:03:53.990Z,99.90
2023-04-24T03:08:59.192Z,99.90
2023-04-24T03:14:03.128Z,99.90
2023-04-24T03:19:06.469Z,99.90
2023-04-24T03:24:15.817Z,99.90
2023-04-24T03:29:19.736Z,99.90
2023-04-24T03:34:23.731Z,99.90
2023-04-24T03:39:28.905Z,99.90
2023-04-24T03:44:33.911Z,99.90
2023-04-24T03:49:38.354Z,99.90
2023-04-24T03:54:43.566Z,99.90
2023-04-24T03:59:48.646Z,99.90
2023-04-24T04:04:55.998Z,99.90
2023-04-24T04:10:01.146Z,99.90
2023-04-24T04:15:06.164Z,99.90
2023-04-24T04:20:12.273Z,99.90
2023-04-24T04:25:20.361Z,99.90
2023-04-24T04:30:24.961Z,99.90
2023-04-24T04:35:34.532Z,99.90
2023-04-24T04:40:39.329Z,99.90
2023-04-24T04:45:44.299Z,99.90
2023-04-24T04:51:19.906Z,99.90
2023-04-24T04:56:25.754Z,99.90
2023-04-24T05:01:29.605Z,99.90
2023-04-24T05:06:33.198Z,99.90
2023-04-24T05:11:38.329Z,99.90
2023-04-24T05:16:42.600Z,99.90
2023-04-24T05:21:47.428Z,99.90
2023-04-24T05:26:53.030Z,99.90
2023-04-24T05:32:02.568Z,99.90
2023-04-24T05:37:10.801Z,99.90
2023-04-24T05:42:15.985Z,99.90
2023-04-24T05:47:19.689Z,99.40
2023-04-24T05:52:23.581Z,98.60
2023-04-24T05:57:29.281Z,98.30
2023-04-24T06:02:39.316Z,98.10
2023-04-24T06:07:44.462Z,97.70
2023-04-24T06:12:49.112Z,97.00
2023-04-24T06:17:54.457Z,96.30
2023-04-24T06:22:58.182Z,95.80
2023-04-24T06:28:03.608Z,95.20
2023-04-24T06:33:19.440Z,94.80
2023-04-24T06:38:24.785Z,94.60
2023-04-24T06:43:29.397Z,94.30
2023-04-24T06:48:33.197Z,94.00
2023-04-24T06:53:36.875Z,93.90
2023-04-24T06:58:42.014Z,93.90
2023-04-24T07:03:45.883Z,93.70
2023-04-24T07:08:50.077Z,93.50
2023-04-24T07:13:55.264Z,93.10
2023-04-24T07:18:58.837Z,92.90
2023-04-24T07:24:02.854Z,92.60
2023-04-24T07:29:08.023Z,92.70
2023-04-24T07:34:11.447Z,92.50
2023-04-24T07:39:14.754Z,92.30
2023-04-24T07:44:19.410Z,91.70
2023-04-24T07:49:23.550Z,91.00
2023-04-24T07:54:27.067Z,90.00
2023-04-24T07:59:32.105Z,88.50
2023-04-24T08:04:35.701Z,87.40
2023-04-24T08:09:39.184Z,86.70
2023-04-24T08:14:44.172Z,84.80
2023-04-24T08:19:49.278Z,84.30
2023-04-24T08:24:52.495Z,83.20
2023-04-24T08:29:57.069Z,81.20
2023-04-24T08:35:00.984Z,79.70
2023-04-24T08:40:09.594Z,77.50
2023-04-24T08:45:14.993Z,75.60
2023-04-24T08:50:19.324Z,74.00
2023-04-24T08:55:22.880Z,73.90
2023-04-24T09:00:28.062Z,73.50
2023-04-24T09:05:32.096Z,72.60
2023-04-24T09:10:37.570Z,72.90
2023-04-24T09:15:42.820Z,72.20
2023-04-24T09:21:02.808Z,72.00
2023-04-24T09:26:07.076Z,71.50
2023-04-24T09:31:15.070Z,71.40
2023-04-24T09:36:20.036Z,71.50
2023-04-24T09:41:23.347Z,72.50
2023-04-24T09:46:34.127Z,72.50
2023-04-24T09:51:38.604Z,71.60
2023-04-24T09:56:45.596Z,70.40
2023-04-24T10:01:51.833Z,69.60
2023-04-24T10:06:56.935Z,68.90
2023-04-24T10:12:01.113Z,68.20
2023-04-24T10:17:06.333Z,67.00
2023-04-24T10:22:10.033Z,66.60
2023-04-24T10:27:16.382Z,64.60
2023-04-24T10:32:21.089Z,64.40
2023-04-24T10:37:25.119Z,63.80
2023-04-24T10:42:29.929Z,62.60
2023-04-24T10:47:42.236Z,61.70
2023-04-24T10:52:49.489Z,61.70
2023-04-24T10:58:07.730Z,61.60
2023-04-24T11:03:27.229Z,61.60
2023-04-24T11:08:38.300Z,61.10
2023-04-24T11:14:07.235Z,60.70
2023-04-24T11:19:19.872Z,60.60
2023-04-24T11:24:34.210Z,59.90
2023-04-24T11:29:45.988Z,59.50
2023-04-24T11:34:52.441Z,58.10
2023-04-24T11:39:57.160Z,57.30
2023-04-24T11:45:01.410Z,57.00
2023-04-24T11:50:08.768Z,56.00
2023-04-24T11:55:27.023Z,56.00
2023-04-24T12:00:31.921Z,55.50
2023-04-24T12:05:36.800Z,55.20
2023-04-24T12:10:40.219Z,54.10
2023-04-24T12:15:43.638Z,54.10
2023-04-24T12:20:48.295Z,53.00
2023-04-24T12:25:54.298Z,53.40
2023-04-24T12:30:57.792Z,54.10
2023-04-24T12:36:02.735Z,54.40
2023-04-24T12:41:07.754Z,54.50
2023-04-24T12:46:11.032Z,53.70
2023-04-24T12:51:15.825Z,53.00
2023-04-24T12:56:19.103Z,52.90
2023-04-24T13:01:22.380Z,53.00
2023-04-24T13:06:27.455Z,52.70
2023-04-24T13:11:30.747Z,52.30
2023-04-24T13:16:34.153Z,52.20
2023-04-24T13:21:38.771Z,51.80
2023-04-24T13:26:41.981Z,51.80
2023-04-24T13:31:45.486Z,51.30
2023-04-24T13:36:53.546Z,50.90
2023-04-24T13:41:57.528Z,50.30
2023-04-24T13:47:01.476Z,49.90
2023-04-24T13:52:06.118Z,49.80
2023-04-24T13:57:09.394Z,49.70
2023-04-24T14:02:12.820Z,50.10
2023-04-24T14:07:17.546Z,50.70
2023-04-24T14:12:21.965Z,51.50
2023-04-24T14:17:26.078Z,51.10
2023-04-24T14:22:30.677Z,50.60
2023-04-24T14:27:35.568Z,50.80
2023-04-24T14:32:40.670Z,51.10
2023-04-24T14:37:45.795Z,51.60
2023-04-24T14:42:49.388Z,51.60
2023-04-24T14:47:53.334Z,52.10
2023-04-24T14:52:59.113Z,53.00
2023-04-24T14:58:02.908Z,54.00
2023-04-24T15:03:06.838Z,55.00
2023-04-24T15:08:11.886Z,55.80
2023-04-24T15:13:15.556Z,56.60
2023-04-24T15:18:18.919Z,57.60
2023-04-24T15:23:23.993Z,57.40
2023-04-24T15:28:27.768Z,57.70
2023-04-24T15:33:31.383Z,58.80
2023-04-24T15:38:36.375Z,59.20
2023-04-24T15:43:40.150Z,59.60
2023-04-24T15:48:44.764Z,60.00
2023-04-24T15:53:49.886Z,59.90
2023-04-24T15:58:53.341Z,60.40
2023-04-24T16:03:56.687Z,59.80
2023-04-24T16:09:03.534Z,59.20
2023-04-24T16:14:08.921Z,59.30
2023-04-24T16:19:13.342Z,59.20
2023-04-24T16:24:17.917Z,59.60
2023-04-24T16:29:21.701Z,59.50
2023-04-24T16:34:25.568Z,58.30
2023-04-24T16:39:30.470Z,58.40
2023-04-24T16:44:33.632Z,58.70
2023-04-24T16:49:37.175Z,59.40
2023-04-24T16:54:42.496Z,60.20
2023-04-24T16:59:46.041Z,60.80
2023-04-24T17:04:49.780Z,61.50
2023-04-24T17:09:54.713Z,62.10
2023-04-24T17:14:58.330Z,62.70
2023-04-24T17:20:11.527Z,63.10
2023-04-24T17:25:26.499Z,63.50
2023-04-24T17:30:30.225Z,63.90
2023-04-24T17:35:33.994Z,64.40
2023-04-24T17:40:39.481Z,64.80
2023-04-24T17:45:43.133Z,65.20
2023-04-24T17:50:47.380Z,65.60
2023-04-24T17:55:52.343Z,66.10
2023-04-24T18:00:55.917Z,66.50
2023-04-24T18:05:59.591Z,66.90
2023-04-24T18:11:04.905Z,67.30
2023-04-24T18:16:08.715Z,67.80
2023-04-24T18:21:12.463Z,68.40
2023-04-24T18:26:18.671Z,68.80
2023-04-24T18:31:22.460Z,69.40
2023-04-24T18:36:25.892Z,70.20
2023-04-24T18:41:30.714Z,71.00
2023-04-24T18:46:37.981Z,71.90
2023-04-24T18:51:53.179Z,72.70
2023-04-24T18:56:59.525Z,73.50
2023-04-24T19:02:02.919Z,74.40
2023-04-24T19:07:06.873Z,75.20
2023-04-24T19:12:12.276Z,76.40
2023-04-24T19:17:22.433Z,76.90
2023-04-24T19:22:26.105Z,76.60
2023-04-24T19:27:31.058Z,76.10
2023-04-24T19:32:34.648Z,75.60
2023-04-24T19:37:37.984Z,75.30
2023-04-24T19:42:44.624Z,75.00
2023-04-24T19:47:48.227Z,74.80
2023-04-24T19:52:51.488Z,74.80
2023-04-24T19:57:56.343Z,75.10
2023-04-24T20:02:59.783Z,75.40
2023-04-24T20:08:03.284Z,75.70
2023-04-24T20:13:07.874Z,76.00
2023-04-24T20:18:11.551Z,76.30
2023-04-24T20:23:15.370Z,76.70
2023-04-24T20:28:19.997Z,77.10
2023-04-24T20:33:23.767Z,77.50
2023-04-24T20:38:27.541Z,77.90
2023-04-24T20:43:32.395Z,78.00
2023-04-24T20:48:37.233Z,78.10
2023-04-24T20:53:41.248Z,78.30
2023-04-24T20:58:48.485Z,78.30
2023-04-24T21:03:53.835Z,78.50
2023-04-24T21:08:57.902Z,78.50
2023-04-24T21:14:03.011Z,78.60
2023-04-24T21:19:06.883Z,78.70
2023-04-24T21:24:10.603Z,79.30
2023-04-24T21:29:15.711Z,79.60
2023-04-24T21:34:18.957Z,80.10
2023-04-24T21:39:22.336Z,80.60
2023-04-24T21:44:27.283Z,80.70
2023-04-24T21:49:30.587Z,80.70
2023-04-24T21:54:33.816Z,80.80
2023-04-24T21:59:38.500Z,80.90
2023-04-24T22:04:42.121Z,80.80
2023-04-24T22:09:45.575Z,80.70
2023-04-24T22:14:50.249Z,80.20
2023-04-24T22:19:53.513Z,80.00
2023-04-24T22:24:57.150Z,79.70
2023-04-24T22:30:02.003Z,79.50
2023-04-24T22:35:06.063Z,79.40
2023-04-24T22:40:10.280Z,79.00
2023-04-24T22:45:15.711Z,79.30
2023-04-24T22:50:20.374Z,79.90
2023-04-24T22:55:23.918Z,80.40
2023-04-24T23:00:29.173Z,80.70
2023-04-24T23:05:32.754Z,81.50
2023-04-24T23:10:36.407Z,81.50
2023-04-24T23:15:42.042Z,81.90
2023-04-24T23:20:45.888Z,82.70
2023-04-24T23:25:49.534Z,82.90
2023-04-24T23:30:54.497Z,84.00
2023-04-24T23:35:58.436Z,85.10
2023-04-24T23:41:02.504Z,85.90
2023-04-24T23:46:07.409Z,86.10
2023-04-24T23:51:11.260Z,86.90
2023-04-24T23:56:14.814Z,87.90
